createdAt,value
2022-10-05T00:00:54.992Z,54.40
2022-10-05T00:03:37.063Z,60.50
2022-10-05T00:06:05.437Z,43.40
2022-10-05T00:08:35.378Z,39.10
2022-10-05T00:11:07.639Z,35.70
2022-10-05T00:13:35.622Z,41.80
2022-10-05T00:16:19.377Z,48.80
2022-10-05T00:18:53.185Z,42.30
2022-10-05T00:21:24.298Z,36.70
2022-10-05T00:23:55.911Z,37.10
2022-10-05T00:26:26.309Z,37.00
2022-10-05T00:28:54.907Z,37.10
2022-10-05T00:31:25.104Z,46.00
2022-10-05T00:33:55.062Z,40.10
2022-10-05T00:36:23.559Z,38.30
2022-10-05T00:38:52.102Z,37.90
2022-10-05T00:41:54.129Z,36.70
2022-10-05T00:44:48.019Z,33.70
2022-10-05T00:47:27.840Z,36.40
2022-10-05T00:50:03.317Z,36.30
2022-10-05T00:52:54.886Z,39.00
2022-10-05T00:55:33.503Z,37.70
2022-10-05T00:58:15.944Z,36.10
2022-10-05T01:01:04.670Z,34.10
2022-10-05T01:04:07.099Z,33.00
2022-10-05T01:07:09.956Z,32.30
2022-10-05T01:09:53.345Z,36.80
2022-10-05T01:12:38.021Z,36.40
2022-10-05T01:18:08.504Z,37.60
2022-10-05T01:20:59.858Z,34.50
2022-10-05T01:23:37.554Z,32.50
2022-10-05T01:26:27.150Z,37.10
2022-10-05T01:29:08.463Z,36.70
2022-10-05T01:32:26.059Z,37.50
2022-10-05T01:34:59.294Z,37.70
2022-10-05T01:37:39.384Z,35.40
2022-10-05T01:40:21.951Z,36.00
2022-10-05T01:42:52.339Z,39.80
2022-10-05T01:45:26.640Z,39.70
2022-10-05T01:48:07.843Z,33.10
2022-10-05T01:51:09.216Z,33.60
2022-10-05T01:54:15.701Z,33.10
2022-10-05T01:56:58.463Z,32.90
2022-10-05T01:59:40.857Z,35.10
2022-10-05T02:02:12.399Z,37.60
2022-10-05T02:05:04.683Z,42.70
2022-10-05T02:07:36.790Z,34.20
2022-10-05T02:10:33.070Z,35.60
2022-10-05T02:13:15.719Z,34.70
2022-10-05T02:15:54.730Z,31.20
2022-10-05T02:18:30.618Z,34.50
2022-10-05T02:21:03.124Z,36.20
2022-10-05T02:23:39.168Z,34.50
2022-10-05T02:26:11.222Z,31.70
2022-10-05T02:28:58.935Z,31.80
2022-10-05T02:31:54.966Z,28.60
2022-10-05T02:34:39.594Z,29.40
2022-10-05T02:38:08.669Z,31.90
2022-10-05T02:40:58.610Z,33.80
2022-10-05T02:43:53.962Z,29.50
2022-10-05T02:46:35.034Z,24.50
2022-10-05T02:49:40.276Z,24.80
2022-10-05T02:52:18.934Z,31.50
2022-10-05T02:54:49.429Z,23.10
2022-10-05T02:57:31.423Z,27.10
2022-10-05T03:00:40.091Z,29.00
2022-10-05T03:03:23.519Z,31.50
2022-10-05T03:06:12.446Z,32.30
2022-10-05T03:08:49.905Z,29.10
2022-10-05T03:11:41.299Z,26.40
2022-10-05T03:14:12.054Z,22.10
2022-10-05T03:17:04.554Z,22.50
2022-10-05T03:19:45.880Z,24.10
2022-10-05T03:22:20.152Z,19.20
2022-10-05T03:24:55.214Z,20.00
2022-10-05T03:27:33.513Z,19.40
2022-10-05T03:30:18.435Z,20.80
2022-10-05T03:33:25.704Z,25.80
2022-10-05T03:36:06.800Z,21.90
2022-10-05T03:38:37.564Z,19.00
2022-10-05T03:41:33.082Z,27.10
2022-10-05T03:44:15.711Z,20.70
2022-10-05T03:46:58.495Z,28.10
2022-10-05T03:49:47.987Z,17.50
2022-10-05T03:52:22.257Z,20.10
2022-10-05T03:54:58.159Z,25.20
2022-10-05T03:57:35.165Z,22.80
2022-10-05T04:00:06.511Z,18.30
2022-10-05T04:03:28.181Z,17.70
2022-10-05T04:06:03.520Z,22.40
2022-10-05T04:08:52.483Z,20.20
2022-10-05T04:11:29.037Z,16.20
2022-10-05T04:14:06.259Z,23.00
2022-10-05T04:17:17.855Z,26.80
2022-10-05T04:20:02.072Z,25.20
2022-10-05T04:22:39.383Z,21.10
2022-10-05T04:25:10.334Z,23.70
2022-10-05T04:27:42.835Z,17.10
2022-10-05T04:30:17.998Z,27.90
2022-10-05T04:32:50.377Z,19.70
2022-10-05T04:35:54.466Z,16.90
2022-10-05T04:38:58.955Z,23.20
2022-10-05T04:41:29.927Z,19.80
2022-10-05T04:44:28.334Z,28.30
2022-10-05T04:47:22.418Z,19.90
2022-10-05T04:50:11.985Z,17.40
2022-10-05T04:53:24.092Z,17.90
2022-10-05T04:55:58.404Z,19.40
2022-10-05T04:58:26.747Z,32.60
2022-10-05T05:00:55.331Z,17.60
2022-10-05T05:03:38.937Z,20.00
2022-10-05T05:06:52.670Z,17.60
2022-10-05T05:09:39.355Z,18.20
2022-10-05T05:12:22.499Z,14.80
2022-10-05T05:14:53.204Z,16.90
2022-10-05T05:17:48.313Z,17.80
2022-10-05T05:20:27.305Z,21.50
2022-10-05T05:23:13.080Z,17.00
2022-10-05T05:25:53.078Z,37.40
2022-10-05T05:28:42.392Z,20.20
2022-10-05T05:31:32.644Z,15.10
2022-10-05T05:34:23.938Z,16.00
2022-10-05T05:37:13.293Z,14.90
2022-10-05T05:40:01.936Z,17.20
2022-10-05T05:43:00.526Z,14.50
2022-10-05T05:45:44.094Z,41.20
2022-10-05T05:48:18.662Z,16.20
2022-10-05T05:50:49.565Z,16.30
2022-10-05T05:53:44.651Z,12.50
2022-10-05T05:56:21.722Z,14.50
2022-10-05T05:59:23.675Z,13.90
2022-10-05T06:01:59.862Z,15.10
2022-10-05T06:04:37.712Z,13.30
2022-10-05T06:07:06.602Z,20.60
2022-10-05T06:09:47.356Z,16.80
2022-10-05T06:12:34.786Z,15.50
2022-10-05T06:15:22.810Z,18.90
2022-10-05T06:17:54.908Z,26.50
2022-10-05T06:20:56.052Z,16.40
2022-10-05T06:23:43.277Z,14.40
2022-10-05T06:26:18.542Z,15.20
2022-10-05T06:28:58.060Z,15.70
2022-10-05T06:32:05.110Z,17.60
2022-10-05T06:34:52.088Z,18.90
2022-10-05T06:37:34.201Z,17.30
2022-10-05T06:40:34.202Z,16.10
2022-10-05T06:43:29.912Z,20.90
2022-10-05T06:46:23.579Z,19.60
2022-10-05T06:49:16.081Z,17.20
2022-10-05T06:52:26.633Z,17.10
2022-10-05T06:55:14.050Z,15.00
2022-10-05T06:58:24.239Z,21.70
2022-10-05T07:01:37.073Z,18.30
2022-10-05T07:04:59.005Z,21.70
2022-10-05T07:07:45.597Z,14.70
2022-10-05T07:10:34.741Z,14.00
2022-10-05T07:13:47.304Z,16.70
2022-10-05T07:16:27.026Z,18.40
2022-10-05T07:18:56.123Z,11.70
2022-10-05T07:21:39.539Z,17.00
2022-10-05T07:24:43.181Z,14.80
2022-10-05T07:27:18.588Z,13.60
2022-10-05T07:30:01.769Z,14.10
2022-10-05T07:35:54.796Z,18.20
2022-10-05T07:38:38.030Z,11.30
2022-10-05T07:41:15.101Z,13.40
2022-10-05T07:44:02.128Z,13.60
2022-10-05T07:46:50.060Z,12.00
2022-10-05T07:49:44.428Z,12.40
2022-10-05T07:54:54.368Z,13.60
2022-10-05T07:58:00.334Z,12.40
2022-10-05T08:00:50.291Z,9.80
2022-10-05T08:03:48.007Z,14.70
2022-10-05T08:06:35.941Z,12.00
2022-10-05T08:09:39.180Z,10.10
2022-10-05T08:12:13.384Z,15.40
2022-10-05T08:14:49.326Z,15.00
2022-10-05T08:17:39.917Z,13.50
2022-10-05T08:20:17.292Z,10.70
2022-10-05T08:22:53.588Z,10.90
2022-10-05T08:25:28.657Z,11.00
2022-10-05T08:28:05.131Z,10.20
2022-10-05T08:30:48.724Z,18.90
2022-10-05T08:33:20.382Z,10.40
2022-10-05T08:36:10.918Z,15.50
2022-10-05T08:38:40.237Z,15.90
2022-10-05T08:41:45.115Z,14.90
2022-10-05T08:47:17.037Z,9.90
2022-10-05T08:49:44.820Z,13.10
2022-10-05T08:52:25.495Z,11.60
2022-10-05T08:55:27.423Z,11.50
2022-10-05T08:58:14.187Z,11.40
2022-10-05T09:01:14.794Z,13.80
2022-10-05T09:04:16.823Z,11.90
2022-10-05T09:07:13.816Z,12.00
2022-10-05T09:09:57.159Z,11.80
2022-10-05T09:12:46.377Z,10.60
2022-10-05T09:15:26.874Z,12.00
2022-10-05T09:18:16.935Z,10.50
2022-10-05T09:21:08.687Z,11.40
2022-10-05T09:23:44.976Z,14.70
2022-10-05T09:26:33.089Z,14.40
2022-10-05T09:29:38.948Z,14.30
2022-10-05T09:32:19.131Z,15.00
2022-10-05T09:34:53.819Z,12.00
2022-10-05T09:37:40.032Z,13.20
2022-10-05T09:40:19.866Z,14.40
2022-10-05T09:43:09.689Z,11.40
2022-10-05T09:46:05.074Z,14.20
2022-10-05T09:49:11.627Z,13.40
2022-10-05T09:51:48.887Z,11.10
2022-10-05T09:54:43.831Z,11.90
2022-10-05T09:57:52.406Z,13.00
2022-10-05T10:00:24.140Z,13.00
2022-10-05T10:02:57.964Z,11.60
2022-10-05T10:05:34.727Z,10.30
2022-10-05T10:08:22.025Z,10.30
2022-10-05T10:11:18.457Z,13.30
2022-10-05T10:13:56.000Z,10.70
2022-10-05T10:16:55.106Z,16.20
2022-10-05T10:19:44.593Z,11.80
2022-10-05T10:22:42.219Z,18.70
2022-10-05T10:25:31.918Z,13.10
2022-10-05T10:28:37.870Z,16.60
2022-10-05T10:31:58.284Z,13.80
2022-10-05T10:34:35.115Z,16.10
2022-10-05T10:37:31.360Z,13.50
2022-10-05T10:40:08.494Z,17.60
2022-10-05T10:43:14.227Z,14.80
2022-10-05T10:46:20.593Z,19.00
2022-10-05T10:49:09.691Z,14.30
2022-10-05T10:51:46.804Z,13.60
2022-10-05T10:54:41.747Z,11.50
2022-10-05T10:57:13.678Z,10.20
2022-10-05T11:00:03.670Z,12.90
2022-10-05T11:02:56.478Z,19.40
2022-10-05T11:05:31.655Z,10.30
2022-10-05T11:08:25.316Z,11.50
2022-10-05T11:10:56.266Z,9.70
2022-10-05T11:13:53.315Z,10.00
2022-10-05T11:16:46.952Z,14.50
2022-10-05T11:20:03.207Z,21.30
2022-10-05T11:22:50.359Z,17.40
2022-10-05T11:25:53.795Z,22.20
2022-10-05T11:28:34.855Z,15.30
2022-10-05T11:31:21.689Z,13.70
2022-10-05T11:34:08.680Z,9.80
2022-10-05T11:36:45.530Z,14.40
2022-10-05T11:39:33.551Z,10.30
2022-10-05T11:42:36.197Z,56.40
2022-10-05T11:45:19.404Z,13.80
2022-10-05T11:47:59.898Z,12.30
2022-10-05T11:50:58.119Z,13.10
2022-10-05T11:53:35.083Z,12.00
2022-10-05T11:56:19.374Z,9.50
2022-10-05T11:59:05.929Z,10.60
2022-10-05T12:02:15.089Z,25.20
2022-10-05T12:05:11.379Z,9.70
2022-10-05T12:08:07.115Z,8.80
2022-10-05T12:11:00.853Z,9.90
2022-10-05T12:13:28.660Z,10.70
2022-10-05T12:16:27.053Z,10.60
2022-10-05T12:19:31.741Z,10.80
2022-10-05T12:22:24.009Z,11.40
2022-10-05T12:25:06.339Z,13.80
2022-10-05T12:27:41.011Z,19.00
2022-10-05T12:30:13.636Z,7.90
2022-10-05T12:33:06.964Z,8.20
2022-10-05T12:35:49.294Z,6.60
2022-10-05T12:38:28.755Z,9.40
2022-10-05T12:41:04.630Z,9.90
2022-10-05T12:43:37.210Z,5.90
2022-10-05T12:46:26.688Z,7.10
2022-10-05T12:49:21.808Z,9.60
2022-10-05T12:52:03.677Z,6.60
2022-10-05T12:55:00.886Z,9.90
2022-10-05T12:57:38.328Z,10.60
2022-10-05T13:00:21.769Z,8.20
2022-10-05T13:02:58.130Z,10.90
2022-10-05T13:05:44.955Z,12.70
2022-10-05T13:08:41.872Z,10.60
2022-10-05T13:11:28.289Z,10.50
2022-10-05T13:14:18.274Z,11.20
2022-10-05T13:16:46.150Z,13.60
2022-10-05T13:19:35.654Z,12.20
2022-10-05T13:22:34.409Z,9.00
2022-10-05T13:25:14.430Z,6.60
2022-10-05T13:27:57.665Z,9.20
2022-10-05T13:30:25.700Z,6.70
2022-10-05T13:33:33.450Z,8.40
2022-10-05T13:36:42.949Z,7.60
2022-10-05T13:39:28.892Z,11.20
2022-10-05T13:42:09.553Z,10.30
2022-10-05T13:44:47.050Z,6.40
2022-10-05T13:47:31.794Z,9.30
2022-10-05T13:50:14.107Z,10.90
2022-10-05T13:52:50.525Z,8.90
2022-10-05T13:55:38.740Z,9.10
2022-10-05T13:58:34.809Z,11.00
2022-10-05T14:01:08.849Z,13.70
2022-10-05T14:03:38.467Z,12.80
2022-10-05T14:06:27.831Z,7.00
2022-10-05T14:09:00.055Z,8.90
2022-10-05T14:11:32.205Z,18.40
2022-10-05T14:14:21.932Z,7.00
2022-10-05T14:16:56.290Z,8.90
2022-10-05T14:19:24.306Z,5.60
2022-10-05T14:22:00.886Z,14.30
2022-10-05T14:24:43.574Z,10.00
2022-10-05T14:27:30.798Z,9.00
2022-10-05T14:30:12.388Z,13.20
2022-10-05T14:32:50.563Z,8.20
2022-10-05T14:35:23.038Z,7.30
2022-10-05T14:37:53.833Z,11.10
2022-10-05T14:40:27.547Z,17.90
2022-10-05T14:42:56.641Z,9.40
2022-10-05T14:45:29.994Z,11.60
2022-10-05T14:48:01.821Z,8.40
2022-10-05T14:50:31.582Z,8.00
2022-10-05T14:53:11.734Z,9.50
2022-10-05T14:55:53.008Z,10.30
2022-10-05T14:58:40.318Z,10.50
2022-10-05T15:01:20.465Z,7.40
2022-10-05T15:04:06.149Z,11.50
2022-10-05T15:06:47.167Z,9.90
2022-10-05T15:09:21.097Z,9.70
2022-10-05T15:11:52.601Z,10.40
2022-10-05T15:14:43.542Z,12.20
2022-10-05T15:17:27.162Z,13.50
2022-10-05T15:20:24.735Z,11.10
2022-10-05T15:23:23.949Z,10.40
2022-10-05T15:26:14.231Z,9.10
2022-10-05T15:28:48.427Z,10.70
2022-10-05T15:31:54.679Z,8.80
2022-10-05T15:34:30.814Z,10.80
2022-10-05T15:37:07.916Z,10.40
2022-10-05T15:39:44.369Z,11.40
2022-10-05T15:42:16.993Z,9.10
2022-10-05T15:45:00.005Z,10.90
2022-10-05T15:48:06.729Z,14.30
2022-10-05T15:50:55.549Z,17.00
2022-10-05T15:53:28.125Z,18.10
2022-10-05T15:56:29.145Z,15.20
2022-10-05T15:59:18.734Z,15.70
2022-10-05T16:01:56.686Z,20.80
2022-10-05T16:04:50.179Z,19.20
2022-10-05T16:07:44.720Z,24.60
2022-10-05T16:10:23.519Z,21.90
2022-10-05T16:13:06.135Z,29.00
2022-10-05T16:15:43.406Z,16.40
2022-10-05T16:18:36.004Z,16.00
2022-10-05T16:21:22.727Z,13.90
2022-10-05T16:24:20.849Z,15.90
2022-10-05T16:26:54.978Z,15.10
2022-10-05T16:29:48.154Z,16.20
2022-10-05T16:32:42.958Z,22.70
2022-10-05T16:35:36.217Z,24.60
2022-10-05T16:38:17.473Z,22.70
2022-10-05T16:41:27.574Z,24.00
2022-10-05T16:44:11.062Z,24.90
2022-10-05T16:46:58.187Z,26.00
2022-10-05T16:49:41.405Z,28.10
2022-10-05T16:52:30.220Z,37.30
2022-10-05T16:55:04.840Z,45.00
2022-10-05T16:57:46.811Z,37.50
2022-10-05T17:00:44.318Z,37.40
2022-10-05T17:03:42.425Z,27.20
2022-10-05T17:06:29.544Z,48.50
2022-10-05T17:09:29.226Z,87.50
2022-10-05T17:12:32.461Z,42.10
2022-10-05T17:15:21.124Z,30.50
2022-10-05T17:18:07.339Z,25.10
2022-10-05T17:20:44.488Z,24.40
2022-10-05T17:23:21.346Z,25.20
2022-10-05T17:25:55.524Z,29.40
2022-10-05T17:28:37.701Z,28.00
2022-10-05T17:31:13.986Z,32.30
2022-10-05T17:34:00.303Z,32.20
2022-10-05T17:36:40.585Z,29.50
2022-10-05T17:39:49.052Z,24.40
2022-10-05T17:42:26.834Z,37.40
2022-10-05T17:45:20.860Z,27.90
2022-10-05T17:47:59.614Z,30.60
2022-10-05T17:50:56.262Z,30.90
2022-10-05T17:53:56.748Z,28.90
2022-10-05T17:56:24.988Z,32.30
2022-10-05T17:58:59.859Z,39.10
2022-10-05T18:01:31.273Z,50.20
2022-10-05T18:04:12.196Z,42.80
2022-10-05T18:06:48.230Z,46.60
2022-10-05T18:09:21.561Z,62.40
2022-10-05T18:12:09.114Z,35.10
2022-10-05T18:14:58.207Z,42.10
2022-10-05T18:17:52.182Z,62.80
2022-10-05T18:20:29.852Z,37.40
2022-10-05T18:23:07.913Z,36.10
2022-10-05T18:25:55.080Z,36.00
2022-10-05T18:28:26.052Z,32.50
2022-10-05T18:31:13.165Z,31.20
2022-10-05T18:34:02.092Z,29.30
2022-10-05T18:36:43.671Z,24.70
2022-10-05T18:39:49.718Z,23.20
2022-10-05T18:42:27.492Z,21.90
2022-10-05T18:45:06.747Z,21.70
2022-10-05T18:48:07.352Z,23.50
2022-10-05T18:51:07.259Z,22.70
2022-10-05T18:54:03.749Z,26.60
2022-10-05T18:56:46.865Z,23.80
2022-10-05T18:59:36.569Z,25.10
2022-10-05T19:02:31.310Z,23.80
2022-10-05T19:05:46.272Z,39.20
2022-10-05T19:08:39.202Z,31.40
2022-10-05T19:11:19.875Z,44.50
2022-10-05T19:14:13.287Z,40.60
2022-10-05T19:16:50.900Z,28.40
2022-10-05T19:19:33.606Z,26.60
2022-10-05T19:22:39.555Z,37.10
2022-10-05T19:25:30.092Z,32.70
2022-10-05T19:28:23.418Z,28.60
2022-10-05T19:31:05.858Z,26.80
2022-10-05T19:33:36.972Z,33.70
2022-10-05T19:36:56.500Z,31.70
2022-10-05T19:39:48.238Z,29.10
2022-10-05T19:42:50.271Z,29.30
2022-10-05T19:45:27.083Z,36.60
2022-10-05T19:47:57.849Z,31.10
2022-10-05T19:50:30.491Z,33.10
2022-10-05T19:53:05.033Z,43.80
2022-10-05T19:55:41.810Z,29.70
2022-10-05T19:58:30.089Z,24.90
2022-10-05T20:01:11.351Z,26.00
2022-10-05T20:03:41.402Z,27.90
2022-10-05T20:06:11.085Z,31.80
2022-10-05T20:08:47.365Z,34.40
2022-10-05T20:11:27.727Z,34.10
2022-10-05T20:13:55.497Z,38.00
2022-10-05T20:16:44.967Z,42.30
2022-10-05T20:19:50.086Z,37.20
2022-10-05T20:22:34.837Z,30.60
2022-10-05T20:27:44.495Z,28.60
2022-10-05T20:30:17.075Z,33.30
2022-10-05T20:32:49.609Z,31.60
2022-10-05T20:35:23.363Z,39.60
2022-10-05T20:37:51.267Z,42.80
2022-10-05T20:40:20.403Z,31.60
2022-10-05T20:42:48.311Z,32.30
2022-10-05T20:45:16.193Z,31.70
2022-10-05T20:47:46.830Z,34.30
2022-10-05T20:50:15.452Z,34.60
2022-10-05T20:52:43.384Z,55.50
2022-10-05T20:55:12.421Z,50.20
2022-10-05T20:57:46.213Z,34.30
2022-10-05T21:00:14.442Z,28.80
2022-10-05T21:02:42.311Z,31.70
2022-10-05T21:05:10.430Z,32.80
2022-10-05T21:07:38.412Z,31.90
2022-10-05T21:10:06.948Z,31.70
2022-10-05T21:12:34.939Z,26.50
2022-10-05T21:15:06.201Z,23.10
2022-10-05T21:17:34.782Z,31.50
2022-10-05T21:20:02.717Z,36.50
2022-10-05T21:22:31.217Z,37.20
2022-10-05T21:24:59.119Z,26.60
2022-10-05T21:27:27.028Z,28.40
2022-10-05T21:29:54.941Z,29.00
2022-10-05T21:32:22.875Z,22.40
2022-10-05T21:34:50.723Z,29.70
2022-10-05T21:37:19.979Z,30.80
2022-10-05T21:39:48.090Z,21.40
2022-10-05T21:42:15.960Z,23.90
2022-10-05T21:44:43.819Z,22.90
2022-10-05T21:47:11.737Z,27.10
2022-10-05T21:49:41.313Z,26.20
2022-10-05T21:52:09.212Z,28.30
2022-10-05T21:54:37.028Z,27.30
2022-10-05T21:57:05.307Z,25.20
2022-10-05T21:59:34.560Z,25.40
2022-10-05T22:02:02.520Z,22.80
2022-10-05T22:04:30.445Z,21.70
2022-10-05T22:06:58.405Z,23.90
2022-10-05T22:09:26.391Z,22.30
2022-10-05T22:11:55.040Z,23.50
2022-10-05T22:14:22.952Z,21.90
2022-10-05T22:16:50.907Z,23.30
2022-10-05T22:19:20.534Z,22.70
2022-10-05T22:21:48.415Z,29.60
2022-10-05T22:24:16.318Z,27.20
2022-10-05T22:26:47.804Z,26.00
2022-10-05T22:29:17.041Z,25.90
2022-10-05T22:31:48.947Z,31.30
2022-10-05T22:34:18.310Z,26.10
2022-10-05T22:36:47.622Z,30.90
2022-10-05T22:39:16.876Z,26.50
2022-10-05T22:41:44.960Z,24.00
2022-10-05T22:44:12.909Z,26.60
2022-10-05T22:46:40.829Z,25.00
2022-10-05T22:49:08.930Z,28.80
2022-10-05T22:51:36.835Z,29.00
2022-10-05T22:54:04.895Z,25.00
2022-10-05T22:56:32.782Z,24.20
2022-10-05T22:59:00.700Z,29.20
2022-10-05T23:01:28.610Z,27.40
2022-10-05T23:03:57.392Z,25.80
2022-10-05T23:06:28.314Z,23.80
2022-10-05T23:08:56.976Z,31.60
2022-10-05T23:11:27.259Z,28.20
2022-10-05T23:13:57.108Z,22.20
2022-10-05T23:16:27.774Z,26.20
2022-10-05T23:18:56.444Z,23.90
2022-10-05T23:21:27.198Z,26.10
2022-10-05T23:23:55.098Z,24.00
2022-10-05T23:26:25.474Z,22.60
2022-10-05T23:28:54.273Z,21.90
2022-10-05T23:31:25.807Z,23.10
2022-10-05T23:33:54.204Z,22.60
2022-10-05T23:36:25.179Z,26.90
2022-10-05T23:38:53.523Z,26.30
2022-10-05T23:41:21.401Z,26.50
2022-10-05T23:43:50.096Z,24.70
2022-10-05T23:46:18.203Z,30.30
2022-10-05T23:48:46.151Z,25.10
2022-10-05T23:51:14.508Z,23.70
2022-10-05T23:53:42.634Z,24.70
2022-10-05T23:56:11.153Z,22.80
2022-10-05T23:58:39.682Z,23.90
